Linton, IN

12:53 PM EDT on October 23, 2014 (GMT -0400)
KINSANDB2 | Change Station
CLOSE
Current Station
Personal Weather Station
Location: Sandborn, IN
Elevation: 479 ft
Nearby Weather Stations

Elev 479 ft 38.90 °N, 87.18 °W | Updated 6 minutes ago

Clear
Clear
57.6 °F
Feels Like 57.6 °F
N
2.0
Wind Variable Wind from East
Gusts 6.0 mph

Today
High -- | Low -- °F
--% Chance of Precip.
Yesterday
High -- | Low -- °F
Precip. -- in
8:06 AM 6:58 PM
Waning Crescent, 0% visible
Pressure 30.24 in
Visibility 10.0 miles
Clouds Clear
Dew Point 46 °F
Humidity 66%
Rainfall 0.00 in
Snow Depth Not available.
UV 5 out of 12
Pollen .80 out of 12
Air Quality Not available.
Flu Activity Sporadic
METAR KDCY 231635Z AUTO 00000KT 10SM CLR 13/06 A3024 RMK AO2 T01290059

More Conditions Fewer Conditions

Pressure 30.24 in
Visibility 10.0 miles
Clouds Clear
Dew Point 46 °F
Humidity 66%
Rainfall 0.00 in
Snow Depth Not available.
UV 5 out of 12
Pollen .80 out of 12
Air Quality Not available.
Flu Activity Sporadic
METAR KDCY 231635Z AUTO 00000KT 10SM CLR 13/06 A3024 RMK AO2 T01290059

More Conditions Fewer Conditions

10-Day Weather Forecast

Almanac

Astronomy

Oct. 23, 2014 Rise Set
Actual Time 8:06 AM EDT 6:58 PM EDT
Civil Twilight 7:39 AM EDT 7:26 PM EDT
Nautical Twilight 7:08 AM EDT 7:57 PM EDT
Astronomical Twilight 6:37 AM EDT 8:28 PM EDT
Moon 7:45 AM EDT 7:00 PM EDT
Length of Visible Light 11h 46m
Length of Day
10h 52m
Tomorrow will be 2m 22s shorter.
Waning Crescent, 0% of the Moon is Illuminated
Today
Waning Crescent
Oct 23
New
Oct 30
First Quarter
Nov 6
Full
Nov 14
Last Quarter

Today's Extremes

State Highs State Lows

Community

WunderPhotos

Upload Photos

1,764,308 photos uploaded!

WunderBlogs® & News

Nearby

Snow Depth

Station Depth Elevation
No new snow has been reported.

Earthquake Activity

City Distance Mag. Time & Date
No recent earthquake activity has been reported nearby.
Minimum magnitude displayed is 2.5.

Coastal Water Temperatures

Place Temperature
No Stations Reporting

Nearby Weather Stations